createdAt,value
2023-10-17T00:00:34.276Z,94.91
2023-10-17T00:01:34.238Z,95.16
2023-10-17T00:02:34.255Z,95.32
2023-10-17T00:03:35.275Z,95.68
2023-10-17T00:04:34.602Z,95.53
2023-10-17T00:05:34.258Z,96.15
2023-10-17T00:06:34.233Z,95.95
2023-10-17T00:07:34.190Z,95.78
2023-10-17T00:08:34.161Z,95.47
2023-10-17T00:09:34.160Z,95.99
2023-10-17T00:10:34.137Z,95.72
2023-10-17T00:11:34.694Z,95.78
2023-10-17T00:12:35.124Z,95.78
2023-10-17T00:13:35.189Z,95.68
2023-10-17T00:14:34.131Z,95.72
2023-10-17T00:15:34.142Z,95.51
2023-10-17T00:16:34.109Z,95.10
2023-10-17T00:17:34.130Z,94.89
2023-10-17T00:18:34.115Z,95.00
2023-10-17T00:19:34.116Z,94.79
2023-10-17T00:20:34.066Z,94.89
2023-10-17T00:21:35.123Z,95.10
2023-10-17T00:22:34.056Z,94.68
2023-10-17T00:23:34.942Z,94.79
2023-10-17T00:24:34.077Z,94.79
2023-10-17T00:25:34.045Z,94.48
2023-10-17T00:26:34.045Z,95.20
2023-10-17T00:27:34.063Z,95.31
2023-10-17T00:28:34.052Z,95.77
2023-10-17T00:29:34.014Z,96.60
2023-10-17T00:30:34.116Z,97.02
2023-10-17T00:31:33.997Z,97.12
2023-10-17T00:32:34.049Z,97.64
2023-10-17T00:33:34.069Z,97.12
2023-10-17T00:34:33.971Z,97.12
2023-10-17T00:35:33.976Z,97.64
2023-10-17T00:36:33.965Z,96.44
2023-10-17T00:37:33.960Z,96.75
2023-10-17T00:38:33.962Z,97.58
2023-10-17T00:39:34.008Z,97.27
2023-10-17T00:40:33.944Z,96.95
2023-10-17T00:41:33.945Z,96.95
2023-10-17T00:42:33.956Z,96.85
2023-10-17T00:43:33.923Z,97.06
2023-10-17T00:44:33.930Z,97.27
2023-10-17T00:45:33.987Z,96.64
2023-10-17T00:46:37.685Z,96.44
2023-10-17T00:47:34.938Z,96.54
2023-10-17T00:48:33.894Z,96.33
2023-10-17T00:49:33.874Z,96.02
2023-10-17T00:50:33.889Z,96.23
2023-10-17T00:51:33.871Z,96.33
2023-10-17T00:52:34.082Z,95.61
2023-10-17T00:53:33.851Z,95.81
2023-10-17T00:54:33.883Z,95.92
2023-10-17T00:55:33.856Z,96.37
2023-10-17T00:56:33.833Z,96.27
2023-10-17T00:57:33.905Z,96.48
2023-10-17T00:58:33.815Z,96.06
2023-10-17T00:59:33.819Z,96.37
2023-10-17T01:00:33.923Z,95.34
2023-10-17T01:01:33.818Z,95.75
2023-10-17T01:02:33.809Z,95.54
2023-10-17T01:03:33.816Z,95.34
2023-10-17T01:04:33.773Z,95.44
2023-10-17T01:05:33.775Z,95.13
2023-10-17T01:06:33.852Z,95.03
2023-10-17T01:07:33.764Z,95.23
2023-10-17T01:08:33.767Z,95.23
2023-10-17T01:09:33.786Z,94.82
2023-10-17T01:10:33.738Z,94.61
2023-10-17T01:11:33.761Z,94.61
2023-10-17T01:12:33.735Z,94.51
2023-10-17T01:13:33.720Z,94.71
2023-10-17T01:14:33.733Z,94.61
2023-10-17T01:15:33.750Z,94.92
2023-10-17T01:16:33.752Z,95.13
2023-10-17T01:17:33.699Z,94.82
2023-10-17T01:18:33.735Z,94.82
2023-10-17T01:19:33.677Z,94.71
2023-10-17T01:20:33.666Z,94.98
2023-10-17T01:21:33.779Z,94.88
2023-10-17T01:22:33.653Z,94.88
2023-10-17T01:23:33.654Z,94.88
2023-10-17T01:24:33.697Z,94.98
2023-10-17T01:25:33.633Z,94.78
2023-10-17T01:26:33.640Z,94.67
2023-10-17T01:27:33.657Z,95.19
2023-10-17T01:28:33.623Z,95.25
2023-10-17T01:29:33.610Z,94.53
2023-10-17T01:30:33.630Z,94.73
2023-10-17T01:31:33.605Z,94.84
2023-10-17T01:32:33.663Z,95.15
2023-10-17T01:33:33.586Z,94.84
2023-10-17T01:34:33.578Z,94.79
2023-10-17T01:35:33.570Z,94.68
2023-10-17T01:36:33.595Z,94.68
2023-10-17T01:37:33.572Z,95.10
2023-10-17T01:38:33.541Z,95.10
2023-10-17T01:39:33.533Z,94.68
2023-10-17T01:40:33.528Z,95.10
2023-10-17T01:41:33.537Z,94.79
2023-10-17T01:42:33.566Z,94.79
2023-10-17T01:43:33.507Z,94.58
2023-10-17T01:44:33.494Z,94.58
2023-10-17T01:45:33.518Z,94.37
2023-10-17T01:46:33.515Z,94.48
2023-10-17T01:47:33.516Z,94.68
2023-10-17T01:48:33.547Z,94.48
2023-10-17T01:49:33.457Z,95.06
2023-10-17T01:50:33.461Z,94.95
2023-10-17T01:51:33.515Z,94.95
2023-10-17T01:52:33.464Z,95.37
2023-10-17T01:53:33.433Z,95.47
2023-10-17T01:54:33.457Z,95.37
2023-10-17T01:55:33.421Z,95.22
2023-10-17T01:56:33.427Z,95.43
2023-10-17T01:57:33.481Z,95.32
2023-10-17T01:58:33.409Z,95.43
2023-10-17T01:59:33.401Z,95.01
2023-10-17T02:00:33.484Z,94.91
2023-10-17T02:01:33.389Z,94.81
2023-10-17T02:02:33.398Z,94.91
2023-10-17T02:03:33.393Z,94.91
2023-10-17T02:04:33.382Z,94.81
2023-10-17T02:05:33.363Z,94.70
2023-10-17T02:06:33.376Z,94.91
2023-10-17T02:07:33.459Z,95.01
2023-10-17T02:08:33.348Z,94.91
2023-10-17T02:09:33.356Z,94.87
2023-10-17T02:10:33.324Z,94.91
2023-10-17T02:11:33.314Z,95.39
2023-10-17T02:12:33.364Z,95.12
2023-10-17T02:13:33.308Z,95.49
2023-10-17T02:14:33.290Z,95.39
2023-10-17T02:15:33.352Z,95.18
2023-10-17T02:16:33.361Z,95.12
2023-10-17T02:17:33.313Z,95.70
2023-10-17T02:18:33.312Z,95.43
2023-10-17T02:19:33.260Z,95.64
2023-10-17T02:20:33.264Z,96.15
2023-10-17T02:21:33.310Z,96.36
2023-10-17T02:22:33.249Z,96.15
2023-10-17T02:23:33.231Z,96.36
2023-10-17T02:24:33.279Z,97.50
2023-10-17T02:25:33.224Z,97.14
2023-10-17T02:26:33.201Z,96.98
2023-10-17T02:27:33.229Z,96.98
2023-10-17T02:28:33.218Z,96.88
2023-10-17T02:29:33.189Z,96.67
2023-10-17T02:30:33.210Z,97.09
2023-10-17T02:31:33.190Z,96.98
2023-10-17T02:32:33.184Z,97.09
2023-10-17T02:33:33.244Z,97.50
2023-10-17T02:34:33.172Z,97.39
2023-10-17T02:35:33.157Z,97.09
2023-10-17T02:36:33.184Z,97.60
2023-10-17T02:37:33.143Z,98.74
2023-10-17T02:38:33.153Z,98.64
2023-10-17T02:39:33.176Z,98.74
2023-10-17T02:40:33.110Z,98.33
2023-10-17T02:41:33.123Z,98.64
2023-10-17T02:42:33.144Z,98.07
2023-10-17T02:43:33.088Z,98.38
2023-10-17T02:44:33.082Z,98.27
2023-10-17T02:45:33.094Z,99.10
2023-10-17T02:46:33.068Z,98.90
2023-10-17T02:47:33.095Z,98.58
2023-10-17T02:48:33.153Z,99.21
2023-10-17T02:49:33.055Z,99.05
2023-10-17T02:50:33.053Z,99.41
2023-10-17T02:51:33.197Z,99.16
2023-10-17T02:52:33.039Z,99.37
2023-10-17T02:53:33.044Z,99.05
2023-10-17T02:54:33.058Z,99.37
2023-10-17T02:55:33.013Z,99.41
2023-10-17T02:56:33.030Z,99.26
2023-10-17T02:57:33.018Z,99.47
2023-10-17T02:58:33.004Z,98.43
2023-10-17T02:59:32.989Z,99.57
2023-10-17T03:00:33.014Z,99.05
2023-10-17T03:01:33.032Z,99.16
2023-10-17T03:02:33.054Z,99.47
2023-10-17T03:03:33.065Z,99.16
2023-10-17T03:04:34.010Z,99.68
2023-10-17T03:05:32.947Z,99.10
2023-10-17T03:06:33.009Z,99.99
2023-10-17T03:07:32.925Z,99.82
2023-10-17T03:08:32.930Z,99.99
2023-10-17T03:09:32.986Z,99.99
2023-10-17T03:10:32.905Z,99.99
2023-10-17T03:11:32.920Z,99.99
2023-10-17T03:12:32.922Z,99.99
2023-10-17T03:13:32.887Z,99.99
2023-10-17T03:14:32.894Z,99.99
2023-10-17T03:15:32.933Z,99.99
2023-10-17T03:16:32.884Z,99.99
2023-10-17T03:17:32.878Z,99.99
2023-10-17T03:18:32.898Z,99.99
2023-10-17T03:19:32.859Z,99.99
2023-10-17T03:20:32.848Z,99.99
2023-10-17T03:21:32.870Z,99.99
2023-10-17T03:22:32.828Z,99.99
2023-10-17T03:23:32.826Z,99.99
2023-10-17T03:24:32.849Z,99.99
2023-10-17T03:25:34.624Z,99.99
2023-10-17T03:26:32.790Z,99.99
2023-10-17T03:27:32.788Z,99.99
2023-10-17T03:28:32.786Z,99.99
2023-10-17T03:29:32.789Z,99.99
2023-10-17T03:30:32.793Z,99.99
2023-10-17T03:31:32.781Z,99.99
2023-10-17T03:32:32.781Z,99.99
2023-10-17T03:33:32.774Z,99.99
2023-10-17T03:34:32.729Z,99.99
2023-10-17T03:35:32.735Z,99.99
2023-10-17T03:36:32.758Z,99.99
2023-10-17T03:37:32.717Z,99.99
2023-10-17T03:38:32.722Z,99.99
2023-10-17T03:39:32.730Z,99.99
2023-10-17T03:40:32.751Z,99.99
2023-10-17T03:41:32.740Z,99.99
2023-10-17T03:42:32.732Z,99.99
2023-10-17T03:43:32.671Z,99.99
2023-10-17T03:44:32.682Z,99.99
2023-10-17T03:45:32.752Z,99.99
2023-10-17T03:46:32.701Z,99.99
2023-10-17T03:47:32.681Z,99.85
2023-10-17T03:48:32.680Z,99.99
2023-10-17T03:49:32.631Z,99.38
2023-10-17T03:50:32.636Z,99.13
2023-10-17T03:51:32.878Z,99.38
2023-10-17T03:52:32.704Z,99.33
2023-10-17T03:53:32.644Z,99.13
2023-10-17T03:54:32.642Z,99.23
2023-10-17T03:55:32.591Z,98.86
2023-10-17T03:56:32.596Z,99.17
2023-10-17T03:57:32.626Z,98.50
2023-10-17T03:58:32.606Z,98.71
2023-10-17T03:59:32.581Z,98.50
2023-10-17T04:00:32.591Z,98.30
2023-10-17T04:01:32.604Z,98.30
2023-10-17T04:02:32.562Z,99.02
2023-10-17T04:03:32.616Z,97.99
2023-10-17T04:04:32.642Z,98.50
2023-10-17T04:05:32.520Z,98.71
2023-10-17T04:06:32.552Z,97.99
2023-10-17T04:07:32.523Z,97.88
2023-10-17T04:08:32.510Z,98.09
2023-10-17T04:09:32.522Z,97.88
2023-10-17T04:10:32.498Z,97.78
2023-10-17T04:11:32.496Z,96.85
2023-10-17T04:12:32.540Z,96.85
2023-10-17T04:13:32.467Z,97.26
2023-10-17T04:14:32.460Z,97.26
2023-10-17T04:15:32.504Z,97.06
2023-10-17T04:16:32.458Z,96.85
2023-10-17T04:17:32.492Z,96.54
2023-10-17T04:18:32.531Z,96.85
2023-10-17T04:19:32.469Z,96.64
2023-10-17T04:20:32.420Z,96.85
2023-10-17T04:21:32.497Z,96.64
2023-10-17T04:22:32.413Z,96.75
2023-10-17T04:23:32.403Z,96.54
2023-10-17T04:24:32.422Z,96.95
2023-10-17T04:25:32.404Z,97.16
2023-10-17T04:26:32.409Z,97.22
2023-10-17T04:27:32.397Z,97.11
2023-10-17T04:28:32.366Z,97.26
2023-10-17T04:29:32.361Z,97.36
2023-10-17T04:30:32.369Z,96.95
2023-10-17T04:31:32.379Z,96.75
2023-10-17T04:32:32.376Z,97.06
2023-10-17T04:33:32.362Z,96.44
2023-10-17T04:34:32.327Z,96.19
2023-10-17T04:35:32.322Z,96.54
2023-10-17T04:36:32.368Z,95.87
2023-10-17T04:37:32.334Z,96.33
2023-10-17T04:38:32.313Z,96.39
2023-10-17T04:39:32.331Z,96.29
2023-10-17T04:40:32.305Z,95.92
2023-10-17T04:41:32.301Z,96.19
2023-10-17T04:42:32.324Z,95.77
2023-10-17T04:43:32.280Z,96.02
2023-10-17T04:44:32.275Z,95.56
2023-10-17T04:45:32.332Z,95.71
2023-10-17T04:46:32.262Z,95.77
2023-10-17T04:47:32.251Z,95.77
2023-10-17T04:48:32.263Z,95.61
2023-10-17T04:49:32.252Z,95.87
2023-10-17T04:50:32.233Z,96.12
2023-10-17T04:51:32.263Z,96.12
2023-10-17T04:52:32.202Z,95.50
2023-10-17T04:53:32.212Z,95.19
2023-10-17T04:54:32.250Z,95.50
2023-10-17T04:55:32.200Z,95.29
2023-10-17T04:56:32.168Z,95.87
2023-10-17T04:57:32.222Z,95.71
2023-10-17T04:58:32.298Z,96.02
2023-10-17T04:59:32.155Z,95.92
2023-10-17T05:00:32.244Z,96.02
2023-10-17T05:01:32.153Z,96.02
2023-10-17T05:02:32.210Z,95.86
2023-10-17T05:03:32.215Z,96.17
2023-10-17T05:04:32.418Z,96.69
2023-10-17T05:05:32.129Z,97.10
2023-10-17T05:06:32.139Z,96.58
2023-10-17T05:07:32.108Z,96.89
2023-10-17T05:08:32.097Z,97.31
2023-10-17T05:09:32.118Z,97.20
2023-10-17T05:10:32.106Z,97.10
2023-10-17T05:11:32.067Z,97.31
2023-10-17T05:12:32.075Z,97.16
2023-10-17T05:13:32.059Z,97.52
2023-10-17T05:14:32.053Z,97.47
2023-10-17T05:15:32.086Z,97.06
2023-10-17T05:16:32.046Z,96.54
2023-10-17T05:17:32.111Z,96.75
2023-10-17T05:18:32.080Z,96.89
2023-10-17T05:19:32.020Z,96.85
2023-10-17T05:20:32.015Z,96.85
2023-10-17T05:21:32.058Z,96.95
2023-10-17T05:22:31.996Z,96.95
2023-10-17T05:23:31.992Z,97.06
2023-10-17T05:24:32.193Z,96.85
2023-10-17T05:25:31.974Z,96.44
2023-10-17T05:26:31.992Z,96.23
2023-10-17T05:27:31.982Z,95.98
2023-10-17T05:28:31.961Z,96.23
2023-10-17T05:29:31.956Z,95.61
2023-10-17T05:30:31.981Z,95.77
2023-10-17T05:31:31.970Z,95.77
2023-10-17T05:32:31.989Z,95.71
2023-10-17T05:33:31.966Z,95.92
2023-10-17T05:34:31.919Z,95.81
2023-10-17T05:35:31.913Z,95.77
2023-10-17T05:36:31.974Z,95.98
2023-10-17T05:37:31.898Z,95.67
2023-10-17T05:38:31.894Z,95.77
2023-10-17T05:39:31.895Z,95.77
2023-10-17T05:40:31.888Z,96.02
2023-10-17T05:41:31.868Z,96.02
2023-10-17T05:42:31.914Z,95.98
2023-10-17T05:43:31.868Z,95.67
2023-10-17T05:44:31.851Z,95.67
2023-10-17T05:45:31.935Z,95.81
2023-10-17T05:46:31.860Z,96.33
2023-10-17T05:47:31.847Z,96.23
2023-10-17T05:48:31.840Z,97.36
2023-10-17T05:49:31.818Z,96.95
2023-10-17T05:50:31.827Z,96.70
2023-10-17T05:51:31.848Z,96.49
2023-10-17T05:52:31.809Z,96.85
2023-10-17T05:53:31.818Z,97.26
2023-10-17T05:54:59.826Z,97.32
2023-10-17T05:55:35.191Z,96.91
2023-10-17T05:56:32.774Z,97.01
2023-10-17T05:57:31.836Z,96.91
2023-10-17T05:58:31.761Z,96.80
2023-10-17T05:59:31.781Z,96.80
2023-10-17T06:00:31.770Z,96.80
2023-10-17T06:01:31.788Z,97.01
2023-10-17T06:02:31.764Z,97.22
2023-10-17T06:03:31.847Z,97.32
2023-10-17T06:04:31.808Z,97.42
2023-10-17T06:05:31.751Z,96.39
2023-10-17T06:06:32.796Z,96.59
2023-10-17T06:07:32.700Z,96.19
2023-10-17T06:08:31.714Z,96.29
2023-10-17T06:09:31.875Z,96.29
2023-10-17T06:10:31.772Z,96.19
2023-10-17T06:11:31.671Z,95.77
2023-10-17T06:12:31.708Z,95.77
2023-10-17T06:13:31.661Z,95.56
2023-10-17T06:14:31.656Z,96.08
2023-10-17T06:15:31.702Z,96.08
2023-10-17T06:16:31.706Z,96.14
2023-10-17T06:17:31.634Z,96.24
2023-10-17T06:18:31.758Z,96.24
2023-10-17T06:19:31.624Z,96.14
2023-10-17T06:20:31.621Z,96.19
2023-10-17T06:21:31.760Z,95.98
2023-10-17T06:22:31.613Z,95.62
2023-10-17T06:23:31.599Z,96.08
2023-10-17T06:24:31.630Z,95.94
2023-10-17T06:25:31.581Z,95.98
2023-10-17T06:26:31.601Z,96.24
2023-10-17T06:27:31.576Z,96.39
2023-10-17T06:28:31.561Z,96.19
2023-10-17T06:29:33.617Z,96.14
2023-10-17T06:30:31.592Z,96.24
2023-10-17T06:31:31.561Z,97.07
2023-10-17T06:32:31.887Z,96.34
2023-10-17T06:33:31.572Z,97.17
2023-10-17T06:34:31.521Z,96.91
2023-10-17T06:35:31.514Z,96.59
2023-10-17T06:36:31.564Z,97.42
2023-10-17T06:37:31.558Z,97.32
2023-10-17T06:38:31.526Z,97.32
2023-10-17T06:39:31.506Z,96.91
2023-10-17T06:40:31.499Z,97.01
2023-10-17T06:41:31.491Z,96.80
2023-10-17T06:42:31.993Z,96.91
2023-10-17T06:43:31.481Z,97.11
2023-10-17T06:44:31.480Z,96.86
2023-10-17T06:45:31.474Z,96.76
2023-10-17T06:46:32.496Z,96.86
2023-10-17T06:47:31.452Z,96.97
2023-10-17T06:48:31.548Z,96.86
2023-10-17T06:49:31.431Z,96.86
2023-10-17T06:50:31.433Z,96.24
2023-10-17T06:51:31.578Z,96.03
2023-10-17T06:52:31.450Z,95.94
2023-10-17T06:53:31.400Z,95.73
2023-10-17T06:54:32.440Z,96.03
2023-10-17T06:55:31.387Z,96.03
2023-10-17T06:56:31.424Z,95.99
2023-10-17T06:57:31.428Z,96.09
2023-10-17T06:58:31.376Z,95.68
2023-10-17T06:59:31.363Z,96.09
2023-10-17T07:00:31.410Z,95.57
2023-10-17T07:01:31.381Z,95.68
2023-10-17T07:02:31.358Z,95.89
2023-10-17T07:03:31.415Z,95.32
2023-10-17T07:04:31.751Z,95.22
2023-10-17T07:05:31.334Z,95.32
2023-10-17T07:06:31.342Z,95.02
2023-10-17T07:07:31.307Z,95.64
2023-10-17T07:08:31.292Z,95.43
2023-10-17T07:09:31.314Z,95.43
2023-10-17T07:10:31.294Z,95.43
2023-10-17T07:11:31.286Z,95.12
2023-10-17T07:12:31.342Z,95.43
2023-10-17T07:13:31.268Z,94.40
2023-10-17T07:14:31.253Z,95.28
2023-10-17T07:15:31.305Z,95.80
2023-10-17T07:16:31.307Z,95.18
2023-10-17T07:17:31.276Z,95.39
2023-10-17T07:18:31.294Z,94.97
2023-10-17T07:19:31.596Z,95.49
2023-10-17T07:20:31.231Z,95.18
2023-10-17T07:21:31.444Z,95.07
2023-10-17T07:22:31.201Z,94.46
2023-10-17T07:23:31.211Z,94.56
2023-10-17T07:24:31.462Z,94.67
2023-10-17T07:25:31.194Z,95.07
2023-10-17T07:26:31.182Z,95.07
2023-10-17T07:27:31.208Z,95.28
2023-10-17T07:28:31.161Z,95.90
2023-10-17T07:29:31.155Z,95.07
2023-10-17T07:30:31.175Z,95.80
2023-10-17T07:31:31.176Z,95.76
2023-10-17T07:32:31.200Z,95.45
2023-10-17T07:33:31.178Z,95.14
2023-10-17T07:34:31.136Z,95.45
2023-10-17T07:35:31.122Z,95.24
2023-10-17T07:36:31.124Z,94.82
2023-10-17T07:37:31.098Z,94.89
2023-10-17T07:38:31.148Z,94.99
2023-10-17T07:39:31.366Z,95.20
2023-10-17T07:40:31.099Z,94.99
2023-10-17T07:41:31.084Z,95.09
2023-10-17T07:42:31.099Z,95.15
2023-10-17T07:43:31.075Z,94.78
2023-10-17T07:44:31.172Z,94.84
2023-10-17T07:45:31.083Z,94.84
2023-10-17T07:46:31.142Z,94.80
2023-10-17T07:47:31.076Z,94.64
2023-10-17T07:48:31.067Z,94.28
2023-10-17T07:49:31.044Z,94.18
2023-10-17T07:50:31.027Z,94.28
2023-10-17T07:51:31.060Z,94.49
2023-10-17T07:52:30.997Z,94.28
2023-10-17T07:53:31.018Z,94.76
2023-10-17T07:54:31.274Z,94.45
2023-10-17T07:55:30.986Z,94.13
2023-10-17T07:56:30.988Z,94.13
2023-10-17T07:57:31.234Z,93.73
2023-10-17T07:58:30.977Z,92.80
2023-10-17T07:59:30.961Z,92.90
2023-10-17T08:00:32.107Z,93.11
2023-10-17T08:01:31.963Z,93.58
2023-10-17T08:02:30.997Z,93.37
2023-10-17T08:03:30.987Z,93.27
2023-10-17T08:04:31.186Z,93.37
2023-10-17T08:05:30.904Z,93.21
2023-10-17T08:06:31.615Z,93.06
2023-10-17T08:07:30.909Z,93.37
2023-10-17T08:08:31.925Z,93.16
2023-10-17T08:09:39.714Z,93.06
2023-10-17T08:10:32.881Z,92.86
2023-10-17T08:11:30.876Z,92.65
2023-10-17T08:12:30.931Z,93.16
2023-10-17T08:13:30.887Z,92.55
2023-10-17T08:14:30.870Z,93.02
2023-10-17T08:15:30.914Z,93.23
2023-10-17T08:16:30.871Z,93.02
2023-10-17T08:17:30.843Z,91.68
2023-10-17T08:18:30.892Z,91.78
2023-10-17T08:19:30.916Z,92.10
2023-10-17T08:20:30.811Z,92.50
2023-10-17T08:21:30.832Z,91.89
2023-10-17T08:22:30.800Z,92.30
2023-10-17T08:23:30.797Z,92.20
2023-10-17T08:24:30.940Z,92.20
2023-10-17T08:25:30.770Z,91.99
2023-10-17T08:26:33.742Z,91.58
2023-10-17T08:27:30.799Z,92.30
2023-10-17T08:28:30.796Z,91.89
2023-10-17T08:29:30.771Z,91.85
2023-10-17T08:30:42.740Z,91.78
2023-10-17T08:31:32.782Z,92.10
2023-10-17T08:32:30.744Z,91.68
2023-10-17T08:33:30.734Z,91.78
2023-10-17T08:34:30.830Z,92.46
2023-10-17T08:35:30.698Z,91.95
2023-10-17T08:36:30.759Z,91.85
2023-10-17T08:37:30.732Z,91.53
2023-10-17T08:38:30.682Z,91.74
2023-10-17T08:39:30.869Z,91.44
2023-10-17T08:40:30.669Z,91.53
2023-10-17T08:41:30.669Z,91.53
2023-10-17T08:42:30.753Z,91.85
2023-10-17T08:43:30.650Z,91.85
2023-10-17T08:44:30.670Z,91.70
2023-10-17T08:45:30.660Z,91.85
2023-10-17T08:46:30.677Z,92.05
2023-10-17T08:47:30.629Z,91.29
2023-10-17T08:48:30.622Z,91.29
2023-10-17T08:49:30.605Z,91.33
2023-10-17T08:50:30.603Z,91.49
2023-10-17T08:51:30.646Z,90.88
2023-10-17T08:52:30.581Z,90.81
2023-10-17T08:53:30.579Z,90.92
2023-10-17T08:54:30.831Z,90.81
2023-10-17T08:55:30.566Z,91.02
2023-10-17T08:56:30.548Z,91.02
2023-10-17T08:57:30.569Z,90.41
2023-10-17T08:58:30.551Z,90.72
2023-10-17T08:59:30.545Z,91.02
2023-10-17T09:00:30.598Z,90.92
2023-10-17T09:01:30.622Z,90.92
2023-10-17T09:02:30.633Z,90.92
2023-10-17T09:03:30.667Z,91.02
2023-10-17T09:04:30.711Z,90.61
2023-10-17T09:05:30.487Z,90.98
2023-10-17T09:06:30.510Z,91.19
2023-10-17T09:07:30.472Z,90.78
2023-10-17T09:08:30.475Z,90.06
2023-10-17T09:09:30.498Z,90.12
2023-10-17T09:10:30.455Z,90.06
2023-10-17T09:11:30.474Z,91.08
2023-10-17T09:12:30.485Z,90.53
2023-10-17T09:13:30.438Z,90.73
2023-10-17T09:14:30.597Z,89.91
2023-10-17T09:15:30.445Z,89.97
2023-10-17T09:16:30.495Z,89.76
2023-10-17T09:17:30.488Z,89.72
2023-10-17T09:18:30.762Z,89.11
2023-10-17T09:19:30.390Z,88.80
2023-10-17T09:20:30.376Z,89.01
2023-10-17T09:21:30.421Z,88.56
2023-10-17T09:22:31.458Z,87.84
2023-10-17T09:23:30.380Z,87.32
2023-10-17T09:24:30.478Z,87.43
2023-10-17T09:25:30.346Z,86.60
2023-10-17T09:26:30.344Z,87.94
2023-10-17T09:27:30.404Z,87.32
2023-10-17T09:28:30.514Z,87.53
2023-10-17T09:29:30.321Z,88.35
2023-10-17T09:30:30.433Z,88.45
2023-10-17T09:31:30.421Z,88.31
2023-10-17T09:32:30.316Z,86.50
2023-10-17T09:33:30.293Z,86.60
2023-10-17T09:34:30.384Z,86.71
2023-10-17T09:35:30.274Z,86.15
2023-10-17T09:36:30.307Z,86.22
2023-10-17T09:37:30.317Z,85.71
2023-10-17T09:38:30.298Z,86.11
2023-10-17T09:39:38.157Z,85.80
2023-10-17T09:40:32.242Z,86.38
2023-10-17T09:41:30.312Z,85.79
2023-10-17T09:42:30.222Z,85.63
2023-10-17T09:43:30.227Z,86.88
2023-10-17T09:44:30.426Z,84.74
2023-10-17T09:45:35.358Z,83.57
2023-10-17T09:46:32.362Z,82.21
2023-10-17T09:47:30.274Z,81.70
2023-10-17T09:48:30.391Z,80.33
2023-10-17T09:49:30.673Z,77.95
2023-10-17T09:50:30.186Z,78.02
2023-10-17T09:51:30.287Z,78.02
2023-10-17T09:52:30.158Z,76.76
2023-10-17T09:53:30.183Z,77.50
2023-10-17T09:54:30.200Z,74.79
2023-10-17T09:55:30.149Z,72.01
2023-10-17T09:56:30.133Z,73.57
2023-10-17T09:57:30.188Z,71.88
2023-10-17T09:58:30.117Z,75.65
2023-10-17T09:59:30.228Z,71.77
2023-10-17T10:00:30.131Z,69.52
2023-10-17T10:01:30.353Z,67.91
2023-10-17T10:02:31.087Z,69.32
2023-10-17T10:03:30.412Z,63.87
2023-10-17T10:04:30.233Z,58.17
2023-10-17T10:05:30.197Z,58.53
2023-10-17T10:06:30.080Z,57.68
2023-10-17T10:07:30.042Z,56.87
2023-10-17T10:08:30.039Z,63.22
2023-10-17T10:09:30.321Z,54.15
2023-10-17T10:10:30.033Z,55.93
2023-10-17T10:11:30.104Z,55.40
2023-10-17T10:12:30.026Z,58.04
2023-10-17T10:13:30.011Z,56.98
2023-10-17T10:14:29.996Z,55.25
2023-10-17T10:15:30.030Z,54.17
2023-10-17T10:16:30.009Z,54.64
2023-10-17T10:17:29.969Z,52.69
2023-10-17T10:18:30.019Z,55.36
2023-10-17T10:19:30.127Z,50.57
2023-10-17T10:20:29.960Z,49.83
2023-10-17T10:21:29.986Z,48.49
2023-10-17T10:22:29.976Z,47.05
2023-10-17T10:23:42.267Z,44.53
2023-10-17T10:24:33.208Z,45.87
2023-10-17T10:25:29.922Z,44.76
2023-10-17T10:26:29.997Z,45.14
2023-10-17T10:27:29.960Z,42.43
2023-10-17T10:28:29.916Z,39.22
2023-10-17T10:29:30.032Z,38.92
2023-10-17T10:30:29.935Z,39.22
2023-10-17T10:31:29.931Z,38.31
2023-10-17T10:32:29.910Z,40.27
2023-10-17T10:33:30.141Z,38.39
2023-10-17T10:34:29.906Z,39.06
2023-10-17T10:35:29.950Z,38.35
2023-10-17T10:36:29.930Z,39.03
2023-10-17T10:37:29.857Z,37.15
2023-10-17T10:38:29.868Z,37.93
2023-10-17T10:39:30.101Z,35.17
2023-10-17T10:40:29.862Z,37.85
2023-10-17T10:41:29.906Z,33.53
2023-10-17T10:42:29.865Z,37.55
2023-10-17T10:43:29.819Z,38.10
2023-10-17T10:44:30.200Z,35.82
2023-10-17T10:45:29.856Z,34.92
2023-10-17T10:46:29.987Z,34.94
2023-10-17T10:47:29.908Z,36.49
2023-10-17T10:48:29.855Z,35.88
2023-10-17T10:49:30.077Z,35.78
2023-10-17T10:50:29.917Z,34.90
2023-10-17T10:51:29.802Z,34.08
2023-10-17T10:52:29.812Z,32.81
2023-10-17T10:53:30.254Z,34.03
2023-10-17T10:54:29.927Z,33.00
2023-10-17T10:55:29.771Z,34.61
2023-10-17T10:56:29.750Z,37.34
2023-10-17T10:57:29.796Z,33.94
2023-10-17T10:58:29.728Z,35.96
2023-10-17T10:59:29.933Z,35.34
2023-10-17T11:00:29.827Z,36.30
2023-10-17T11:01:29.773Z,37.88
2023-10-17T11:02:29.790Z,37.95
2023-10-17T11:03:31.054Z,38.24
2023-10-17T11:04:30.858Z,39.57
2023-10-17T11:05:29.702Z,38.96
2023-10-17T11:06:29.776Z,37.51
2023-10-17T11:07:29.701Z,36.87
2023-10-17T11:08:29.684Z,35.32
2023-10-17T11:09:29.732Z,36.62
2023-10-17T11:10:29.680Z,37.12
2023-10-17T11:11:29.669Z,37.70
2023-10-17T11:12:29.694Z,38.33
2023-10-17T11:13:29.647Z,36.19
2023-10-17T11:14:29.806Z,35.07
2023-10-17T11:15:29.660Z,33.29
2023-10-17T11:16:29.662Z,32.51
2023-10-17T11:17:29.636Z,35.09
2023-10-17T11:18:29.655Z,37.22
2023-10-17T11:19:29.615Z,37.28
2023-10-17T11:20:29.614Z,35.02
2023-10-17T11:21:29.608Z,36.72
2023-10-17T11:22:29.600Z,36.26
2023-10-17T11:23:29.589Z,36.10
2023-10-17T11:24:29.826Z,36.28
2023-10-17T11:25:29.581Z,36.30
2023-10-17T11:26:29.838Z,38.78
2023-10-17T11:27:29.607Z,38.15
2023-10-17T11:28:29.562Z,35.83
2023-10-17T11:29:29.663Z,34.43
2023-10-17T11:30:29.636Z,35.22
2023-10-17T11:31:29.571Z,35.31
2023-10-17T11:32:29.579Z,38.26
2023-10-17T11:33:29.581Z,38.16
2023-10-17T11:34:29.759Z,38.85
2023-10-17T11:35:29.567Z,38.47
2023-10-17T11:36:29.590Z,38.06
2023-10-17T11:37:29.510Z,39.37
2023-10-17T11:38:41.615Z,38.00
2023-10-17T11:39:31.512Z,37.59
2023-10-17T11:40:29.507Z,36.16
2023-10-17T11:41:29.493Z,35.55
2023-10-17T11:42:29.534Z,36.36
2023-10-17T11:43:29.611Z,35.49
2023-10-17T11:44:29.978Z,35.57
2023-10-17T11:45:35.181Z,34.33
2023-10-17T11:46:31.557Z,34.31
2023-10-17T11:47:29.475Z,33.94
2023-10-17T11:48:29.490Z,35.04
2023-10-17T11:49:29.461Z,34.92
2023-10-17T11:50:29.456Z,33.20
2023-10-17T11:51:29.486Z,34.13
2023-10-17T11:52:29.440Z,31.35
2023-10-17T11:53:29.437Z,31.45
2023-10-17T11:54:34.531Z,32.21
2023-10-17T11:55:31.528Z,33.26
2023-10-17T11:56:29.416Z,34.34
2023-10-17T11:57:29.503Z,33.36
2023-10-17T11:58:29.402Z,34.00
2023-10-17T11:59:29.437Z,33.59
2023-10-17T12:00:29.474Z,34.28
2023-10-17T12:01:29.421Z,34.95
2023-10-17T12:02:29.403Z,35.80
2023-10-17T12:03:29.408Z,33.58
2023-10-17T12:04:29.670Z,31.75
2023-10-17T12:05:29.444Z,31.62
2023-10-17T12:06:29.384Z,31.38
2023-10-17T12:07:29.380Z,30.18
2023-10-17T12:08:29.351Z,30.19
2023-10-17T12:09:30.315Z,30.58
2023-10-17T12:10:30.373Z,29.19
2023-10-17T12:11:29.404Z,29.59
2023-10-17T12:12:29.349Z,29.61
2023-10-17T12:13:29.378Z,29.76
2023-10-17T12:14:29.458Z,32.01
2023-10-17T12:15:29.376Z,32.62
2023-10-17T12:16:29.378Z,32.78
2023-10-17T12:17:29.349Z,30.79
2023-10-17T12:18:29.339Z,30.63
2023-10-17T12:19:29.295Z,31.74
2023-10-17T12:20:29.268Z,32.31
2023-10-17T12:21:29.315Z,32.67
2023-10-17T12:22:29.279Z,31.14
2023-10-17T12:23:29.292Z,30.90
2023-10-17T12:24:29.449Z,29.41
2023-10-17T12:25:29.270Z,29.69
2023-10-17T12:26:29.516Z,28.50
2023-10-17T12:27:29.266Z,28.68
2023-10-17T12:28:30.198Z,29.38
2023-10-17T12:29:29.244Z,28.03
2023-10-17T12:30:29.760Z,28.26
2023-10-17T12:31:29.277Z,29.25
2023-10-17T12:32:29.292Z,29.55
2023-10-17T12:33:30.228Z,30.43
2023-10-17T12:34:29.360Z,29.63
2023-10-17T12:35:29.602Z,29.14
2023-10-17T12:36:29.234Z,28.62
2023-10-17T12:37:29.190Z,29.85
2023-10-17T12:38:29.187Z,30.04
2023-10-17T12:39:29.220Z,30.43
2023-10-17T12:40:29.178Z,30.51
2023-10-17T12:41:29.176Z,29.99
2023-10-17T12:42:29.169Z,29.89
2023-10-17T12:43:29.144Z,30.17
2023-10-17T12:44:29.326Z,29.27
2023-10-17T12:45:29.153Z,29.35
2023-10-17T12:46:29.163Z,29.93
2023-10-17T12:47:29.207Z,28.77
2023-10-17T12:48:29.160Z,29.39
2023-10-17T12:49:29.102Z,29.97
2023-10-17T12:50:29.113Z,29.60
2023-10-17T12:51:29.294Z,29.52
2023-10-17T12:52:29.141Z,30.02